Time;durP1;ratioP1;P1;durP2;ratioP2;P2;SDS_P1;SDS_P2;PMS_P1;PMS_P2;Temp;Humidity;BMP_temperature;BMP_pressure;BME280_temperature;BME280_humidity;BME280_pressure;Samples;Min_cycle;Max_cycle;Signal;HPM_P1;HPM_P2
2021/12/05 00:22:36;;;;;;;33.10;15.35;;;4.80;99.90;;;;;;5070144;28;20085;-61
2021/12/05 00:25:05;;;;;;;4.38;4.03;;;4.80;99.90;;;;;;5065656;28;20040;-61
2021/12/05 00:27:45;;;;;;;11.32;6.28;;;4.90;99.90;;;;;;5086433;28;20088;-61
2021/12/05 00:35:38;;;;;;;5.03;3.20;;;5.10;99.90;;;;;;5070596;28;20032;-61
2021/12/05 00:46:23;;;;;;;3.78;3.40;;;5.30;99.90;;;;;;5071182;28;20028;-61
2021/12/05 00:54:59;;;;;;;4.03;3.30;;;5.30;99.90;;;;;;5051152;28;20590;-61
2021/12/05 00:57:32;;;;;;;7.75;6.20;;;5.20;99.90;;;;;;5049755;28;20112;-61
2021/12/05 01:05:47;;;;;;;6.07;4.68;;;5.30;99.90;;;;;;5090993;28;20393;-61
2021/12/05 01:08:38;;;;;;;3.22;3.03;;;5.30;99.90;;;;;;5089574;28;20028;-61
2021/12/05 01:13:44;;;;;;;6.53;4.88;;;5.40;99.90;;;;;;5090802;28;20318;-61
2021/12/05 01:16:18;;;;;;;5.10;3.05;;;5.40;99.90;;;;;;5091280;28;20446;-61
2021/12/05 01:18:44;;;;;;;5.45;4.45;;;5.40;99.90;;;;;;5089096;28;20465;-61
2021/12/05 01:21:14;;;;;;;6.05;3.80;;;5.40;99.90;;;;;;5090533;28;20016;-61
2021/12/05 01:24:11;;;;;;;3.60;3.22;;;5.30;99.90;;;;;;5089540;28;20395;-61
2021/12/05 01:54:57;;;;;;;4.65;4.20;;;5.10;99.90;;;;;;5057570;28;20128;-61
2021/12/05 02:37:19;;;;;;;2.38;2.28;;;2.80;99.90;;;;;;5050794;28;20045;-61
2021/12/05 02:42:32;;;;;;;2.10;2.00;;;2.60;99.90;;;;;;5051701;28;20036;-61
2021/12/05 02:44:59;;;;;;;2.22;2.13;;;2.50;99.90;;;;;;5051517;28;20100;-61
2021/12/05 02:47:27;;;;;;;2.00;1.95;;;2.50;99.90;;;;;;5050954;28;20028;-61
2021/12/05 02:49:57;;;;;;;2.40;2.20;;;2.50;99.90;;;;;;5051849;28;20021;-61
2021/12/05 02:52:33;;;;;;;2.20;2.10;;;2.50;99.90;;;;;;5054698;28;20108;-61
2021/12/05 02:55:11;;;;;;;2.45;2.35;;;2.40;99.90;;;;;;5091890;28;20020;-61
2021/12/05 02:57:59;;;;;;;2.47;2.38;;;2.40;99.90;;;;;;5091471;28;20058;-61
2021/12/05 03:03:03;;;;;;;2.15;2.05;;;2.30;99.90;;;;;;5063087;28;20060;-60
2021/12/05 03:05:29;;;;;;;2.20;2.10;;;2.30;99.90;;;;;;5070066;28;20064;-61
2021/12/05 03:08:00;;;;;;;2.40;2.30;;;2.30;99.90;;;;;;5049454;28;20031;-61
2021/12/05 03:10:28;;;;;;;3.83;2.13;;;2.30;99.90;;;;;;5052310;28;20515;-61
2021/12/05 03:12:54;;;;;;;2.35;2.25;;;2.30;99.90;;;;;;5052182;28;20037;-61
2021/12/05 03:15:20;;;;;;;3.58;2.08;;;2.30;99.90;;;;;;5050755;28;20078;-61
2021/12/05 03:17:46;;;;;;;2.10;2.00;;;2.30;99.90;;;;;;5052706;28;20025;-61
2021/12/05 03:20:14;;;;;;;2.58;2.42;;;2.30;99.90;;;;;;5073875;28;20028;-61
2021/12/05 03:22:40;;;;;;;2.40;2.30;;;2.30;99.90;;;;;;5091488;28;20314;-60
2021/12/05 03:25:07;;;;;;;2.47;2.38;;;2.30;99.90;;;;;;5078500;28;20032;-61
2021/12/05 03:27:34;;;;;;;2.90;2.80;;;2.20;99.90;;;;;;5071200;28;20024;-61
2021/12/05 03:30:01;;;;;;;2.35;2.25;;;2.10;99.90;;;;;;5070467;28;20027;-61
2021/12/05 03:32:27;;;;;;;2.15;2.05;;;2.00;99.90;;;;;;5070820;28;20216;-61
2021/12/05 03:34:53;;;;;;;2.63;2.53;;;1.90;99.90;;;;;;5070518;28;20399;-61
2021/12/05 03:37:19;;;;;;;2.65;2.55;;;1.80;99.90;;;;;;5083965;28;20021;-61
2021/12/05 03:39:44;;;;;;;2.38;2.28;;;1.80;99.90;;;;;;5091673;28;20084;-61
2021/12/05 03:42:10;;;;;;;2.75;2.55;;;1.80;99.90;;;;;;5091315;28;20095;-61
2021/12/05 03:44:37;;;;;;;2.47;2.38;;;1.70;99.90;;;;;;5091288;28;20103;-61
2021/12/05 03:47:06;;;;;;;2.50;2.40;;;1.70;99.90;;;;;;5091115;28;20114;-61
2021/12/05 03:49:32;;;;;;;2.42;2.33;;;1.70;99.90;;;;;;5089996;28;20073;-61
2021/12/05 03:52:05;;;;;;;4.20;2.50;;;1.70;99.90;;;;;;5090849;28;20055;-61
2021/12/05 03:54:31;;;;;;;2.72;2.58;;;1.70;99.90;;;;;;5090773;28;20394;-61
2021/12/05 03:56:56;;;;;;;2.55;2.45;;;1.70;99.90;;;;;;5090440;28;20021;-61
2021/12/05 03:59:24;;;;;;;2.67;2.58;;;1.70;99.90;;;;;;5091217;28;20571;-61
2021/12/05 04:01:50;;;;;;;2.80;2.70;;;1.70;99.90;;;;;;5090823;28;20061;-61
2021/12/05 04:04:18;;;;;;;2.90;2.70;;;1.70;99.90;;;;;;5090970;28;20020;-61
2021/12/05 04:06:44;;;;;;;2.97;2.78;;;1.70;99.90;;;;;;5089460;28;20408;-61
2021/12/05 04:09:11;;;;;;;3.00;2.90;;;1.80;99.90;;;;;;5090876;28;20028;-61
2021/12/05 04:11:44;;;;;;;2.63;2.53;;;1.80;99.90;;;;;;5090668;28;20016;-61
2021/12/05 04:14:13;;;;;;;2.47;2.33;;;1.80;99.90;;;;;;5074734;28;20026;-61
2021/12/05 04:16:41;;;;;;;2.83;2.72;;;1.70;99.90;;;;;;5070565;28;20094;-61
2021/12/05 04:19:07;;;;;;;5.20;3.28;;;1.80;99.90;;;;;;5067971;28;20056;-61
2021/12/05 04:21:36;;;;;;;3.50;3.20;;;1.80;99.90;;;;;;5050420;28;20036;-61
2021/12/05 04:24:03;;;;;;;4.65;4.35;;;1.70;99.90;;;;;;5066427;28;20025;-61
2021/12/05 04:26:29;;;;;;;3.55;3.35;;;1.80;99.90;;;;;;5050587;28;20131;-61
2021/12/05 04:28:55;;;;;;;3.53;3.33;;;1.80;99.90;;;;;;5050154;28;20112;-61
2021/12/05 04:31:21;;;;;;;4.05;3.63;;;1.80;99.90;;;;;;5051418;28;20040;-61
2021/12/05 04:33:49;;;;;;;4.07;3.78;;;1.90;99.90;;;;;;5050417;28;20087;-61
2021/12/05 04:36:16;;;;;;;3.55;3.30;;;1.90;99.90;;;;;;5066682;28;20024;-61
2021/12/05 04:38:41;;;;;;;3.70;3.40;;;1.90;99.90;;;;;;5090607;28;20524;-61
2021/12/05 04:41:07;;;;;;;4.55;3.15;;;1.90;99.90;;;;;;5080677;28;20112;-61
2021/12/05 04:43:38;;;;;;;3.17;2.97;;;1.90;99.90;;;;;;5070347;28;20096;-61
2021/12/05 04:46:06;;;;;;;3.58;3.33;;;2.00;99.90;;;;;;5070188;28;20047;-61
2021/12/05 04:48:32;;;;;;;5.13;3.60;;;2.00;99.90;;;;;;5070217;28;20024;-61
2021/12/05 04:50:59;;;;;;;3.65;3.35;;;2.00;99.90;;;;;;5070024;28;20479;-61
2021/12/05 04:53:27;;;;;;;3.80;3.40;;;2.00;99.90;;;;;;5080674;28;20115;-61
2021/12/05 04:55:53;;;;;;;6.13;3.75;;;2.00;99.90;;;;;;5090253;28;20065;-61
2021/12/05 04:58:19;;;;;;;3.30;3.10;;;2.00;99.90;;;;;;5090335;28;20459;-61
2021/12/05 05:00:46;;;;;;;5.50;3.30;;;2.00;99.90;;;;;;5090419;28;20024;-61
2021/12/05 05:03:14;;;;;;;3.50;3.20;;;2.10;99.90;;;;;;5089067;28;20431;-61
2021/12/05 05:05:47;;;;;;;4.93;3.55;;;2.20;99.90;;;;;;5090156;28;20051;-61
2021/12/05 05:08:13;;;;;;;13.40;6.93;;;2.20;99.90;;;;;;5093995;28;20032;-61
2021/12/05 05:10:39;;;;;;;13.57;6.65;;;2.20;99.90;;;;;;5094291;28;20381;-61
2021/12/05 05:13:05;;;;;;;8.30;4.50;;;2.20;99.90;;;;;;5093581;28;20044;-61
2021/12/05 05:15:31;;;;;;;4.22;3.92;;;2.20;99.90;;;;;;5094191;28;20274;-61
2021/12/05 05:17:58;;;;;;;3.50;3.30;;;2.20;99.90;;;;;;5093743;28;20016;-61
2021/12/05 05:20:34;;;;;;;5.57;3.95;;;2.20;99.90;;;;;;5094043;28;20429;-61
2021/12/05 05:39:22;;;;;;;4.03;3.30;;;2.20;99.90;;;;;;5057508;28;20032;-61
2021/12/05 05:47:11;;;;;;;3.47;3.20;;;2.30;99.90;;;;;;5072667;28;20052;-61
2021/12/05 05:52:14;;;;;;;8.85;3.70;;;2.30;99.90;;;;;;5060941;28;20029;-61
2021/12/05 05:54:43;;;;;;;12.13;3.80;;;2.30;99.90;;;;;;5093416;28;20028;-61
2021/12/05 05:57:18;;;;;;;4.85;3.45;;;2.40;99.90;;;;;;5084558;28;20025;-61
2021/12/05 05:59:52;;;;;;;4.05;3.65;;;2.30;99.90;;;;;;5073000;28;20024;-61
2021/12/05 06:05:03;;;;;;;6.85;3.53;;;2.30;99.90;;;;;;5072840;28;20444;-61
2021/12/05 06:07:29;;;;;;;3.42;3.20;;;2.30;99.90;;;;;;5072678;28;20027;-61
2021/12/05 06:09:55;;;;;;;8.15;3.70;;;2.30;99.90;;;;;;5085993;28;20467;-61
2021/12/05 06:12:20;;;;;;;5.07;3.50;;;2.30;99.90;;;;;;5092745;28;20040;-61
2021/12/05 06:14:46;;;;;;;6.55;4.38;;;2.30;99.90;;;;;;5093048;28;20042;-61
2021/12/05 06:17:12;;;;;;;4.97;3.45;;;2.30;99.90;;;;;;5092641;28;20058;-61
2021/12/05 06:19:37;;;;;;;10.15;3.53;;;2.30;99.90;;;;;;5092204;28;20086;-61
2021/12/05 06:22:03;;;;;;;6.10;3.92;;;2.30;99.90;;;;;;5092665;28;20017;-61
2021/12/05 06:24:29;;;;;;;5.70;5.03;;;2.30;99.90;;;;;;5092839;28;20020;-61
2021/12/05 06:26:55;;;;;;;9.23;4.18;;;2.20;99.90;;;;;;5091162;28;20085;-61
2021/12/05 06:29:22;;;;;;;8.55;3.97;;;2.20;99.90;;;;;;5092747;28;20471;-61
2021/12/05 06:36:50;;;;;;;9.95;3.90;;;2.30;99.90;;;;;;5091288;28;20032;-61
2021/12/05 06:42:49;;;;;;;12.98;7.72;;;2.30;99.90;;;;;;5080660;28;20083;-61
2021/12/05 06:48:00;;;;;;;4.63;4.22;;;2.20;99.90;;;;;;5072287;28;20039;-61
2021/12/05 06:50:25;;;;;;;9.15;4.30;;;2.30;99.90;;;;;;5071909;28;20013;-61
2021/12/05 06:52:52;;;;;;;9.88;8.23;;;2.30;99.90;;;;;;5071809;28;20032;-61
2021/12/05 06:55:18;;;;;;;39.13;20.30;;;2.30;99.90;;;;;;5071056;28;20033;-61
2021/12/05 06:57:44;;;;;;;8.15;6.20;;;2.20;99.90;;;;;;5071947;28;20031;-61
2021/12/05 07:00:30;;;;;;;4.85;4.45;;;2.20;99.90;;;;;;5070076;28;20025;-61
2021/12/05 07:02:56;;;;;;;15.18;5.25;;;2.20;99.90;;;;;;5077759;28;20020;-61
2021/12/05 07:08:04;;;;;;;8.45;5.72;;;2.20;99.90;;;;;;5075096;28;20028;-61
2021/12/05 07:10:34;;;;;;;6.25;5.05;;;2.20;99.90;;;;;;5071497;28;20020;-61
2021/12/05 07:16:31;;;;;;;8.23;3.95;;;2.40;99.90;;;;;;5071793;28;20027;-61
2021/12/05 07:18:35;;;;;;;5.28;4.78;;;2.50;99.90;;;;;;5073318;28;20036;-61
2021/12/05 07:26:13;;;;;;;5.30;3.70;;;2.60;99.90;;;;;;5073102;28;20111;-61
2021/12/05 07:42:23;;;;;;;11.80;6.38;;;2.60;99.90;;;;;;5071252;28;20070;-61
2021/12/05 07:44:55;;;;;;;6.13;5.50;;;2.50;99.90;;;;;;5070280;28;20032;-61
2021/12/05 07:47:24;;;;;;;6.53;5.03;;;2.50;99.90;;;;;;5068776;28;20108;-61
2021/12/05 07:49:53;;;;;;;16.15;11.95;;;2.50;99.90;;;;;;5069758;28;20020;-61
2021/12/05 07:52:23;;;;;;;12.48;6.53;;;2.50;99.90;;;;;;5070609;28;20036;-61
2021/12/05 07:55:37;;;;;;;10.95;9.73;;;2.60;99.90;;;;;;5070630;28;20029;-61
2021/12/05 07:57:57;;;;;;;6.90;4.25;;;2.60;99.90;;;;;;5070198;28;20043;-61
2021/12/05 08:00:33;;;;;;;6.63;5.93;;;2.60;99.90;;;;;;5071021;28;20024;-61
2021/12/05 08:16:45;;;;;;;21.58;10.35;;;2.70;99.90;;;;;;5050393;28;20146;-61
2021/12/05 08:19:10;;;;;;;7.68;6.03;;;2.60;99.90;;;;;;5052336;28;20017;-62
2021/12/05 08:21:36;;;;;;;7.80;5.82;;;2.60;99.90;;;;;;5059146;28;20073;-61
2021/12/05 08:24:02;;;;;;;5.85;4.82;;;2.60;99.90;;;;;;5087880;28;20078;-61
2021/12/05 08:26:32;;;;;;;5.93;4.10;;;2.60;99.90;;;;;;5085256;28;20021;-61
2021/12/05 08:29:06;;;;;;;7.25;5.07;;;2.60;99.90;;;;;;5069938;28;20066;-61
2021/12/05 08:34:23;;;;;;;7.88;4.25;;;2.70;99.90;;;;;;5070061;28;20028;-62
2021/12/05 09:39:22;;;;;;;4.57;4.18;;;3.10;99.90;;;;;;5068820;28;20034;-62
2021/12/05 10:08:51;;;;;;;4.53;4.10;;;3.10;99.90;;;;;;5074223;28;20434;-62
2021/12/05 10:11:40;;;;;;;5.95;4.22;;;3.10;99.90;;;;;;5074161;28;20048;-61
2021/12/05 10:34:02;;;;;;;11.05;6.88;;;3.20;99.90;;;;;;5069461;28;20399;-62
2021/12/05 10:36:28;;;;;;;6.38;4.40;;;3.30;99.90;;;;;;5061118;28;20052;-62
2021/12/05 10:39:00;;;;;;;8.52;5.90;;;3.30;99.90;;;;;;5060746;28;20020;-62
2021/12/05 10:44:09;;;;;;;11.05;6.93;;;3.30;99.90;;;;;;5075420;28;20111;-62
2021/12/05 10:46:39;;;;;;;14.68;8.68;;;3.40;99.90;;;;;;5092234;28;20074;-61
2021/12/05 10:49:13;;;;;;;12.68;7.75;;;3.40;99.90;;;;;;5092255;28;20013;-61
2021/12/05 10:51:49;;;;;;;9.80;6.70;;;3.30;99.90;;;;;;5092310;28;20590;-63
2021/12/05 10:54:18;;;;;;;16.90;7.68;;;3.40;99.90;;;;;;5079350;28;20028;-62
2021/12/05 10:56:52;;;;;;;11.75;7.05;;;3.40;99.90;;;;;;5054381;28;20032;-62
2021/12/05 10:59:32;;;;;;;14.95;7.72;;;3.30;99.90;;;;;;5060053;28;20119;-64
2021/12/05 11:02:02;;;;;;;14.65;7.78;;;3.40;99.90;;;;;;5070573;28;20395;-62
2021/12/05 11:04:38;;;;;;;8.63;6.45;;;3.30;99.90;;;;;;5072690;28;20032;-61
2021/12/05 11:07:10;;;;;;;12.52;6.35;;;3.40;99.90;;;;;;5058334;28;20087;-62
2021/12/05 11:09:38;;;;;;;11.10;6.22;;;3.30;99.90;;;;;;5052865;28;20122;-62
2021/12/05 11:12:14;;;;;;;15.70;9.10;;;3.30;99.90;;;;;;5052513;28;20049;-63
2021/12/05 11:14:42;;;;;;;15.73;9.00;;;3.30;99.90;;;;;;5052781;28;20025;-62
2021/12/05 11:17:18;;;;;;;15.85;6.78;;;3.40;99.90;;;;;;5052577;28;20108;-62
2021/12/05 11:20:09;;;;;;;10.63;6.38;;;3.40;99.90;;;;;;5063821;28;20082;-62
2021/12/05 11:22:47;;;;;;;11.35;6.75;;;3.40;99.90;;;;;;5055045;28;20021;-62
2021/12/05 11:25:17;;;;;;;10.80;6.13;;;3.50;99.90;;;;;;5039966;28;20114;-62
2021/12/05 11:27:44;;;;;;;12.27;7.30;;;3.50;99.90;;;;;;5042301;28;20029;-61
2021/12/05 11:30:19;;;;;;;14.40;7.22;;;3.60;99.90;;;;;;5041154;28;20432;-62
2021/12/05 11:33:12;;;;;;;15.52;7.20;;;3.60;99.90;;;;;;5041940;28;20040;-62
2021/12/05 11:35:47;;;;;;;8.93;7.15;;;3.60;99.90;;;;;;5041617;28;20384;-62
2021/12/05 11:38:17;;;;;;;8.93;6.72;;;3.60;99.90;;;;;;5041102;28;20025;-62
2021/12/05 11:40:45;;;;;;;14.57;8.60;;;3.60;99.90;;;;;;5040984;28;20138;-62
2021/12/05 11:43:37;;;;;;;19.02;8.75;;;3.60;99.90;;;;;;5041777;28;20033;-62
2021/12/05 11:46:06;;;;;;;11.88;7.60;;;3.60;99.90;;;;;;5041085;28;20033;-61
2021/12/05 11:48:55;;;;;;;14.00;8.77;;;3.60;99.90;;;;;;5041265;28;20123;-62
2021/12/05 11:51:32;;;;;;;9.32;6.07;;;3.50;99.90;;;;;;5042561;28;20029;-62
2021/12/05 11:54:09;;;;;;;8.57;6.00;;;3.60;99.90;;;;;;5041361;28;20033;-62
2021/12/05 11:56:34;;;;;;;7.93;6.07;;;3.70;99.90;;;;;;5041549;28;20056;-62
2021/12/05 11:59:29;;;;;;;8.63;4.88;;;3.70;99.90;;;;;;5040818;28;20053;-62
2021/12/05 12:02:17;;;;;;;8.25;5.93;;;3.70;99.90;;;;;;5038719;28;20056;-62
2021/12/05 12:04:55;;;;;;;8.90;5.13;;;3.60;99.90;;;;;;5041612;28;20376;-62
2021/12/05 12:07:38;;;;;;;8.65;4.85;;;3.60;99.90;;;;;;5041304;28;20037;-63
2021/12/05 12:10:10;;;;;;;8.43;5.03;;;3.60;99.90;;;;;;5041233;28;20617;-62
2021/12/05 12:12:37;;;;;;;7.43;5.40;;;3.70;99.90;;;;;;5041283;28;20306;-62
2021/12/05 12:15:04;;;;;;;5.70;4.80;;;3.70;99.90;;;;;;5038908;28;20033;-62
2021/12/05 12:17:30;;;;;;;6.25;4.13;;;3.70;99.90;;;;;;5040423;28;20108;-62
2021/12/05 12:19:56;;;;;;;11.50;5.00;;;3.80;99.90;;;;;;5041904;28;20606;-62
2021/12/05 12:22:26;;;;;;;5.88;4.30;;;3.70;99.90;;;;;;5039329;28;20017;-62
2021/12/05 12:24:56;;;;;;;10.57;5.50;;;3.60;99.90;;;;;;5040551;28;20028;-62
2021/12/05 12:27:23;;;;;;;8.60;4.18;;;3.60;99.90;;;;;;5041221;28;20061;-62
2021/12/05 12:29:49;;;;;;;6.05;4.72;;;3.60;99.90;;;;;;5038719;28;20449;-62
2021/12/05 12:32:19;;;;;;;9.27;4.50;;;3.70;99.90;;;;;;5040432;28;20033;-62
2021/12/05 12:34:45;;;;;;;10.65;4.97;;;3.80;99.90;;;;;;5039551;28;20040;-62
2021/12/05 12:37:13;;;;;;;9.10;4.88;;;3.80;99.90;;;;;;5043682;28;21338;-62
2021/12/05 12:39:51;;;;;;;10.38;4.88;;;3.80;99.90;;;;;;5038754;28;20017;-62
2021/12/05 12:42:30;;;;;;;6.68;3.97;;;3.80;99.90;;;;;;5040605;28;20040;-62
2021/12/05 12:45:20;;;;;;;8.45;5.45;;;3.80;99.90;;;;;;5048772;28;20035;-63
2021/12/05 12:47:58;;;;;;;11.07;5.43;;;3.80;99.90;;;;;;5059863;28;20032;-63
2021/12/05 12:50:37;;;;;;;6.57;4.15;;;3.90;99.90;;;;;;5060392;28;20383;-63
2021/12/05 12:53:17;;;;;;;7.50;5.35;;;3.90;99.90;;;;;;5058148;28;20031;-62
2021/12/05 12:55:56;;;;;;;7.35;4.72;;;3.90;99.90;;;;;;5057860;28;20032;-62
2021/12/05 12:58:43;;;;;;;10.98;3.80;;;3.80;99.90;;;;;;5050929;28;20045;-62
2021/12/05 13:10:04;;;;;;;6.20;3.80;;;3.80;99.90;;;;;;5054729;28;20056;-62
2021/12/05 13:12:42;;;;;;;7.05;4.25;;;3.80;99.90;;;;;;5059563;28;20063;-62
2021/12/05 13:15:16;;;;;;;7.25;3.90;;;3.90;99.90;;;;;;5060181;28;20569;-62
2021/12/05 13:17:46;;;;;;;8.80;4.18;;;3.90;99.90;;;;;;5060182;28;20047;-62
2021/12/05 13:20:16;;;;;;;4.80;3.90;;;3.90;99.90;;;;;;5043972;28;20040;-62
2021/12/05 13:23:03;;;;;;;6.15;4.00;;;3.90;99.90;;;;;;5059441;28;20120;-62
2021/12/05 13:25:30;;;;;;;15.63;7.47;;;3.80;99.90;;;;;;5060429;28;20024;-62
2021/12/05 13:27:57;;;;;;;12.77;4.97;;;3.60;99.90;;;;;;5059598;28;20399;-62
2021/12/05 13:30:34;;;;;;;8.15;4.82;;;3.60;99.90;;;;;;5063323;28;20039;-62
2021/12/05 13:33:20;;;;;;;6.32;5.10;;;3.60;99.90;;;;;;5062464;28;20451;-62
2021/12/05 13:35:46;;;;;;;14.32;9.18;;;3.60;99.90;;;;;;5049925;28;20387;-62
2021/12/05 13:38:31;;;;;;;9.57;5.40;;;3.50;99.90;;;;;;5043043;28;20037;-62
2021/12/05 13:41:10;;;;;;;5.82;4.55;;;3.50;99.90;;;;;;5043541;28;20029;-62
2021/12/05 13:43:36;;;;;;;11.68;4.70;;;3.50;99.90;;;;;;5042122;28;20065;-62
2021/12/05 13:46:21;;;;;;;5.70;4.72;;;3.60;99.90;;;;;;5043464;28;20431;-62
2021/12/05 13:48:47;;;;;;;7.65;4.50;;;3.60;99.90;;;;;;5043715;28;20037;-62
2021/12/05 13:51:22;;;;;;;5.10;4.10;;;3.60;99.90;;;;;;5042957;28;20674;-62
2021/12/05 13:53:51;;;;;;;6.07;4.65;;;3.70;99.90;;;;;;5042335;28;20069;-62
2021/12/05 13:56:26;;;;;;;5.45;4.88;;;3.70;99.90;;;;;;5043192;28;20055;-62
2021/12/05 13:59:04;;;;;;;7.85;4.88;;;3.60;99.90;;;;;;5042337;28;20025;-62
2021/12/05 14:01:46;;;;;;;7.28;5.82;;;3.60;99.90;;;;;;5042897;28;20033;-62
2021/12/05 14:04:19;;;;;;;5.45;4.80;;;3.60;99.90;;;;;;5042105;28;20041;-62
2021/12/05 14:07:04;;;;;;;10.13;7.93;;;3.60;99.90;;;;;;5043755;28;20048;-62
2021/12/05 14:09:46;;;;;;;9.90;6.40;;;3.60;99.90;;;;;;5041625;28;20045;-62
2021/12/05 14:12:13;;;;;;;9.10;6.07;;;3.60;99.90;;;;;;5042111;28;20063;-62
2021/12/05 14:14:44;;;;;;;13.55;9.02;;;3.60;99.90;;;;;;5041507;28;20025;-62
2021/12/05 14:17:22;;;;;;;12.55;6.55;;;3.50;99.90;;;;;;5039976;28;20516;-62
2021/12/05 14:19:57;;;;;;;13.10;5.10;;;3.50;99.90;;;;;;5041925;28;20029;-62
2021/12/05 14:22:25;;;;;;;14.30;8.07;;;3.50;99.90;;;;;;5041749;28;20021;-62
2021/12/05 14:24:54;;;;;;;19.10;13.25;;;3.50;99.90;;;;;;5040364;28;20029;-62
2021/12/05 14:27:28;;;;;;;10.73;7.65;;;3.40;99.90;;;;;;5040823;28;20115;-62
2021/12/05 14:29:54;;;;;;;13.05;6.72;;;3.50;99.90;;;;;;5040480;28;20147;-62
2021/12/05 14:32:33;;;;;;;7.68;4.32;;;3.40;99.90;;;;;;5049266;28;20117;-62
2021/12/05 14:35:20;;;;;;;3.95;3.53;;;3.40;99.90;;;;;;5050403;28;20025;-62
2021/12/05 14:37:49;;;;;;;3.65;3.35;;;3.40;99.90;;;;;;5067308;28;20028;-61
2021/12/05 14:40:17;;;;;;;4.53;3.53;;;3.30;99.90;;;;;;5070890;28;20070;-62
2021/12/05 14:42:46;;;;;;;4.88;3.40;;;3.20;99.90;;;;;;5072359;28;20047;-62
2021/12/05 14:45:18;;;;;;;4.20;3.75;;;3.10;99.90;;;;;;5071918;28;20442;-62
2021/12/05 14:47:45;;;;;;;4.22;3.80;;;3.10;99.90;;;;;;5071174;28;20453;-61
2021/12/05 14:50:22;;;;;;;3.45;2.90;;;3.00;99.90;;;;;;5072190;28;20077;-62
2021/12/05 14:52:51;;;;;;;3.67;3.38;;;2.90;99.90;;;;;;5055723;28;20492;-62
2021/12/05 14:55:20;;;;;;;5.30;3.95;;;2.80;99.90;;;;;;5052126;28;20025;-62
2021/12/05 14:57:56;;;;;;;5.55;3.90;;;2.70;99.90;;;;;;5053523;28;20032;-61
2021/12/05 15:00:33;;;;;;;5.00;4.00;;;2.70;99.90;;;;;;5058666;28;21591;-61
2021/12/05 15:03:13;;;;;;;4.25;3.80;;;2.60;99.90;;;;;;5086423;28;20027;-61
2021/12/05 15:05:42;;;;;;;8.55;5.20;;;2.60;99.90;;;;;;5091625;28;20032;-61
2021/12/05 15:08:15;;;;;;;4.15;3.42;;;2.60;99.90;;;;;;5055391;28;20037;-61
2021/12/05 15:10:43;;;;;;;7.40;3.75;;;2.60;99.90;;;;;;5044194;28;20128;-61
2021/12/05 15:13:10;;;;;;;5.60;4.72;;;2.50;99.90;;;;;;5042873;28;20140;-62
2021/12/05 15:15:37;;;;;;;6.43;4.68;;;2.50;99.90;;;;;;5045902;28;20488;-61
2021/12/05 15:18:04;;;;;;;8.27;5.43;;;2.40;99.90;;;;;;5041764;28;20032;-61
2021/12/05 15:20:32;;;;;;;8.00;6.97;;;2.30;99.90;;;;;;5042149;28;20044;-61
2021/12/05 15:23:04;;;;;;;7.00;5.03;;;2.30;99.90;;;;;;5045347;28;20025;-62
2021/12/05 15:25:32;;;;;;;6.90;3.92;;;2.20;99.90;;;;;;5059271;28;20486;-61
2021/12/05 15:28:00;;;;;;;6.47;4.30;;;2.20;99.90;;;;;;5043161;28;20048;-62
2021/12/05 15:30:31;;;;;;;8.60;6.20;;;2.10;99.90;;;;;;5042213;28;20043;-61
2021/12/05 15:33:19;;;;;;;10.95;5.78;;;2.10;99.90;;;;;;5041579;28;20052;-61
2021/12/05 15:35:47;;;;;;;4.95;4.22;;;2.10;99.90;;;;;;5043952;28;20048;-61
2021/12/05 15:38:16;;;;;;;12.57;7.38;;;2.20;99.90;;;;;;5041886;28;20475;-61
2021/12/05 15:40:45;;;;;;;9.48;5.55;;;2.20;99.90;;;;;;5041158;28;20075;-61
2021/12/05 15:43:14;;;;;;;27.80;18.92;;;2.20;99.90;;;;;;5041021;28;20028;-61
2021/12/05 15:45:42;;;;;;;20.17;13.52;;;2.10;99.90;;;;;;5039863;28;20185;-61
2021/12/05 15:48:09;;;;;;;16.27;10.68;;;2.20;99.90;;;;;;5040327;28;20036;-62
2021/12/05 15:50:39;;;;;;;14.10;8.20;;;2.20;99.90;;;;;;5040745;28;20044;-62
2021/12/05 15:53:12;;;;;;;14.50;11.02;;;2.20;99.90;;;;;;5040785;28;20043;-61
2021/12/05 15:55:44;;;;;;;10.50;7.00;;;2.10;99.90;;;;;;5041058;28;20032;-61
2021/12/05 15:58:23;;;;;;;12.07;5.55;;;2.20;99.90;;;;;;5040911;28;20040;-60
2021/12/05 16:00:58;;;;;;;6.43;5.28;;;2.20;99.90;;;;;;5039961;28;20111;-61
2021/12/05 16:03:36;;;;;;;7.72;5.32;;;2.10;99.90;;;;;;5042658;28;20032;-61
2021/12/05 16:06:04;;;;;;;9.30;6.10;;;2.10;99.90;;;;;;5041883;28;20033;-61
2021/12/05 16:08:33;;;;;;;15.38;7.05;;;2.10;99.90;;;;;;5043975;28;20021;-61
2021/12/05 16:11:00;;;;;;;34.22;20.92;;;2.00;99.90;;;;;;5040564;28;20021;-62
2021/12/05 16:13:32;;;;;;;7.68;6.20;;;2.00;99.90;;;;;;5040604;28;20056;-62
2021/12/05 16:16:13;;;;;;;10.35;5.53;;;2.10;99.90;;;;;;5040491;28;20044;-61
2021/12/05 16:18:41;;;;;;;10.20;6.47;;;2.10;99.90;;;;;;5040503;28;20021;-61
2021/12/05 16:21:18;;;;;;;10.25;7.43;;;2.10;99.90;;;;;;5040655;28;20063;-61
2021/12/05 16:23:44;;;;;;;12.35;8.75;;;2.00;99.90;;;;;;5041230;28;20059;-61
2021/12/05 16:26:24;;;;;;;29.33;18.85;;;1.90;99.90;;;;;;5040073;28;20358;-59
2021/12/05 16:29:00;;;;;;;27.42;17.85;;;1.70;99.90;;;;;;5039742;28;20044;-61
2021/12/05 16:31:33;;;;;;;24.08;14.50;;;1.70;99.90;;;;;;5041173;28;20021;-61
2021/12/05 16:34:03;;;;;;;11.07;7.75;;;1.70;99.90;;;;;;5039612;28;20025;-61
2021/12/05 16:36:39;;;;;;;8.32;6.18;;;1.70;99.90;;;;;;5041901;28;20040;-61
2021/12/05 16:39:18;;;;;;;18.23;9.25;;;1.80;99.90;;;;;;5041398;28;20028;-61
2021/12/05 16:41:46;;;;;;;7.28;5.95;;;1.80;99.90;;;;;;5043542;28;20028;-61
2021/12/05 16:44:24;;;;;;;9.18;6.07;;;1.80;99.90;;;;;;5039445;28;20472;-62
2021/12/05 16:47:03;;;;;;;17.17;9.13;;;1.80;99.90;;;;;;5040950;28;22473;-62
2021/12/05 16:49:34;;;;;;;14.73;9.48;;;1.80;99.90;;;;;;5039893;28;20435;-61
2021/12/05 16:52:04;;;;;;;13.50;8.35;;;1.80;99.90;;;;;;5040403;28;20029;-63
2021/12/05 16:54:34;;;;;;;10.60;7.95;;;1.70;99.90;;;;;;5039973;28;20025;-62
2021/12/05 16:57:01;;;;;;;12.18;8.73;;;1.70;99.90;;;;;;5040054;28;20028;-62
2021/12/05 16:59:39;;;;;;;16.77;13.40;;;1.70;99.90;;;;;;5056493;28;20040;-62
2021/12/05 17:02:25;;;;;;;13.65;10.10;;;1.70;99.90;;;;;;5040898;28;20096;-62
2021/12/05 17:05:29;;;;;;;10.15;8.45;;;1.70;99.90;;;;;;5044736;28;20515;-62
2021/12/05 17:08:07;;;;;;;;;;;1.60;99.90;;;;;;5045299;28;20366;-62
2021/12/05 17:10:54;;;;;;;15.20;10.68;;;1.60;99.90;;;;;;5045382;28;19947;-62
2021/12/05 17:13:20;;;;;;;14.52;10.48;;;1.70;99.90;;;;;;5044779;28;20045;-62
2021/12/05 17:15:51;;;;;;;14.65;11.48;;;1.60;99.90;;;;;;5043083;28;20453;-62
2021/12/05 17:18:23;;;;;;;18.10;10.63;;;1.60;99.90;;;;;;5043927;28;20385;-62
2021/12/05 17:21:19;;;;;;;12.23;8.40;;;1.60;99.90;;;;;;5043379;28;20131;-62
2021/12/05 17:24:08;;;;;;;7.72;6.30;;;1.50;99.90;;;;;;5041829;28;20106;-62
2021/12/05 17:26:39;;;;;;;10.95;6.65;;;1.60;99.90;;;;;;5043525;28;20021;-62
2021/12/05 17:29:21;;;;;;;8.02;6.68;;;1.60;99.90;;;;;;5042815;28;20082;-62
2021/12/05 17:31:48;;;;;;;10.80;7.88;;;1.60;99.90;;;;;;5044540;28;20047;-62
2021/12/05 17:34:28;;;;;;;14.45;7.68;;;1.60;99.90;;;;;;5044547;28;20387;-62
2021/12/05 17:37:07;;;;;;;8.65;7.65;;;1.50;99.90;;;;;;5042077;28;20033;-62
2021/12/05 17:39:39;;;;;;;17.30;9.23;;;1.50;99.90;;;;;;5044333;28;20040;-62
2021/12/05 17:42:16;;;;;;;12.07;10.77;;;1.40;99.90;;;;;;5045283;28;20119;-62
2021/12/05 17:44:43;;;;;;;12.35;9.65;;;1.40;99.90;;;;;;5045681;28;20768;-62
2021/12/05 17:47:11;;;;;;;10.43;7.57;;;1.40;99.90;;;;;;5045033;28;20025;-62
2021/12/05 17:49:39;;;;;;;9.38;7.95;;;1.40;99.90;;;;;;5049997;28;20047;-62
2021/12/05 17:52:06;;;;;;;12.98;9.63;;;1.40;99.90;;;;;;5045861;28;20041;-62
2021/12/05 17:54:39;;;;;;;14.40;8.65;;;1.40;99.90;;;;;;5042772;28;20083;-62
2021/12/05 17:57:17;;;;;;;15.60;10.30;;;1.40;99.90;;;;;;5057973;28;20602;-62
2021/12/05 18:04:58;;;;;;;13.57;9.43;;;1.40;99.90;;;;;;5045063;28;20036;-62
2021/12/05 18:07:24;;;;;;;11.32;9.20;;;1.40;99.90;;;;;;5045446;28;20049;-62
2021/12/05 18:09:52;;;;;;;24.90;10.82;;;1.40;99.90;;;;;;5049514;28;20048;-62
2021/12/05 18:12:21;;;;;;;14.60;11.20;;;1.40;99.90;;;;;;5045877;28;20052;-62
2021/12/05 18:14:50;;;;;;;10.40;8.82;;;1.40;99.90;;;;;;5043287;28;20025;-62
2021/12/05 18:17:16;;;;;;;13.68;10.88;;;1.40;99.90;;;;;;5046362;28;20636;-62
2021/12/05 18:19:43;;;;;;;17.92;12.63;;;1.40;99.90;;;;;;5043752;28;20045;-62
2021/12/05 18:22:09;;;;;;;20.67;12.40;;;1.40;99.90;;;;;;5046116;28;20060;-62
2021/12/05 18:24:35;;;;;;;19.73;11.57;;;1.40;99.90;;;;;;5044476;28;20047;-62
2021/12/05 18:27:05;;;;;;;17.90;11.50;;;1.40;99.90;;;;;;5045782;28;20029;-62
2021/12/05 18:29:30;;;;;;;13.93;11.40;;;1.40;99.90;;;;;;5043056;28;20034;-62
2021/12/05 18:31:56;;;;;;;17.13;11.77;;;1.40;99.90;;;;;;5043299;28;20036;-62
2021/12/05 18:34:29;;;;;;;14.68;11.52;;;1.40;99.90;;;;;;5042981;28;20025;-62
2021/12/05 18:36:58;;;;;;;14.90;10.30;;;1.40;99.90;;;;;;5061998;28;20031;-62
2021/12/05 18:39:36;;;;;;;16.80;11.10;;;1.40;99.90;;;;;;5062761;28;20024;-62
2021/12/05 18:42:06;;;;;;;73.78;28.27;;;1.40;99.90;;;;;;5062295;28;20020;-62
2021/12/05 18:44:38;;;;;;;136.82;48.42;;;1.30;99.90;;;;;;5047515;28;20082;-62